Marble Point, Antarctica

7:01 AM GMT on February 11, 2016 (GMT +0000)
Williams Field | | Change Station
CLOSE
Current Station
Airport
Location: Williams Field,
Elevation: 79 ft
Nearby Weather Stations

Elev 79 ft 77.85 °S, 166.67 °E | Updated 1 hour ago

Mostly Cloudy
Mostly Cloudy
14 °F
Feels Like -4 °F
N
21
Wind Variable Wind from ENE

Today
High -- | Low -- °F
--% Chance of Precip.
Yesterday
High -- | Low -- °F
Precip. -- in
Pressure 29.08 in
Visibility 6.2 miles
Clouds Few 2500 ft
Scattered Clouds 5000 ft
Mostly Cloudy 9000 ft
Windchill -4 °F
Dew Point 5 °F
Humidity 67%
Rainfall 0.00 in
Snow Depth Not available.
0:00 AM 0:00 AM
Waxing Crescent, 10% visible
METAR NZCM 110555Z 07018KT 9999 FEW025 SCT050 BKN090 M10/M15 A2906 RMK SLP845
Pressure 29.08 in
Visibility 6.2 miles
Clouds Few 2500 ft
Scattered Clouds 5000 ft
Mostly Cloudy 9000 ft
Windchill -4 °F
Dew Point 5 °F
Humidity 67%
Rainfall 0.00 in
Snow Depth Not available.
0:00 AM 0:00 AM
Waxing Crescent, 10% visible
METAR NZCM 110555Z 07018KT 9999 FEW025 SCT050 BKN090 M10/M15 A2906 RMK SLP845

10-Day Weather Forecast

No radar image for this location.
×

Almanac

Astronomy

Feb. 11, 2016 Rise Set
Actual Time
Civil Twilight
Nautical Twilight
Astronomical Twilight
Moon
Length of Visible Light
Length of Day
Tomorrow will be .
, % of the Moon is Illuminated

Today's Extremes

Country Highs Country Lows

Community

WunderPhotos

Upload Photos

1,892,028 photos uploaded!

WunderBlog® & News

Nearby

Air Quality

  Air Quality AQ Index Pollutant
Not available.

Snow Depth

Station Depth Elevation

Earthquake Activity

City Distance Mag. Time & Date
Minimum magnitude displayed is 2.5.

Coastal Water Temperatures

Place Temperature

Stations

Nearby Weather Stations

Station Location Temp. Windchill Dew Point Humidity Wind Precip. Elev Updated Type